Terminal Aerodrome Forecast
Issued by NWS Cleveland, OH

Home | Current Version | Previous Version | Text Only | Print | Product List | Glossary Off
Versions: 1 2 3 4 5 6 7 8 9 10 11 12 13 14 15 16 17 18 19 20 21 22 23 24 25

462
FTUS41 KCLE 211722
TAFERI
TAF
KERI 211722Z 2118/2218 18014G20KT P6SM BKN250
     FM212200 16007KT P6SM SCT120 OVC250
     FM220200 16005KT P6SM BKN120
     FM220800 16006KT 6SM BR SCT025 BKN045
     FM221000 14004KT 5SM BR OVC025
      TEMPO 2210/2213 2SM BR BKN012
     FM221600 12009KT P6SM BKN045=

USA.gov is the U.S. government's official web portal to all federal, state and local government web resources and services.